sensor_id;sensor_type;location;lat;lon;timestamp;temperature;humidity
22645;DHT22;11489;50.834;6.752;2022-11-18T00:01:11;8.80;92.50
22645;DHT22;11489;50.834;6.752;2022-11-18T00:03:37;8.90;92.40
22645;DHT22;11489;50.834;6.752;2022-11-18T00:06:05;8.90;92.40
22645;DHT22;11489;50.834;6.752;2022-11-18T00:08:32;8.90;92.30
22645;DHT22;11489;50.834;6.752;2022-11-18T00:10:57;8.90;92.30
22645;DHT22;11489;50.834;6.752;2022-11-18T00:13:23;8.90;92.30
22645;DHT22;11489;50.834;6.752;2022-11-18T00:16:11;8.90;92.20
22645;DHT22;11489;50.834;6.752;2022-11-18T00:18:38;9.00;92.20
22645;DHT22;11489;50.834;6.752;2022-11-18T00:21:08;8.90;92.20
22645;DHT22;11489;50.834;6.752;2022-11-18T00:23:34;8.90;92.20
22645;DHT22;11489;50.834;6.752;2022-11-18T00:26:05;9.00;92.20
22645;DHT22;11489;50.834;6.752;2022-11-18T00:28:31;9.00;92.20
22645;DHT22;11489;50.834;6.752;2022-11-18T00:31:23;9.00;92.20
22645;DHT22;11489;50.834;6.752;2022-11-18T00:33:49;9.00;92.10
22645;DHT22;11489;50.834;6.752;2022-11-18T00:36:14;8.90;92.20
22645;DHT22;11489;50.834;6.752;2022-11-18T00:38:40;9.00;92.30
22645;DHT22;11489;50.834;6.752;2022-11-18T00:41:07;9.00;92.30
22645;DHT22;11489;50.834;6.752;2022-11-18T00:43:34;9.00;92.30
22645;DHT22;11489;50.834;6.752;2022-11-18T00:46:00;9.00;92.30
22645;DHT22;11489;50.834;6.752;2022-11-18T00:48:26;9.00;92.30
22645;DHT22;11489;50.834;6.752;2022-11-18T00:50:54;9.00;92.30
22645;DHT22;11489;50.834;6.752;2022-11-18T00:53:21;9.00;92.20
22645;DHT22;11489;50.834;6.752;2022-11-18T00:55:47;9.00;92.20
22645;DHT22;11489;50.834;6.752;2022-11-18T00:58:13;9.00;92.20
22645;DHT22;11489;50.834;6.752;2022-11-18T01:01:00;9.00;92.20
22645;DHT22;11489;50.834;6.752;2022-11-18T01:03:27;9.00;92.10
22645;DHT22;11489;50.834;6.752;2022-11-18T01:05:53;9.00;92.20
22645;DHT22;11489;50.834;6.752;2022-11-18T01:08:19;9.10;92.30
22645;DHT22;11489;50.834;6.752;2022-11-18T01:10:46;9.00;92.20
22645;DHT22;11489;50.834;6.752;2022-11-18T01:13:17;9.00;92.20
22645;DHT22;11489;50.834;6.752;2022-11-18T01:15:56;9.10;92.30
22645;DHT22;11489;50.834;6.752;2022-11-18T01:18:25;9.00;92.20
22645;DHT22;11489;50.834;6.752;2022-11-18T01:20:51;9.10;92.30
22645;DHT22;11489;50.834;6.752;2022-11-18T01:23:18;9.00;92.30
22645;DHT22;11489;50.834;6.752;2022-11-18T01:25:46;9.00;92.30
22645;DHT22;11489;50.834;6.752;2022-11-18T01:28:12;9.00;92.30
22645;DHT22;11489;50.834;6.752;2022-11-18T01:30:39;9.10;92.30
22645;DHT22;11489;50.834;6.752;2022-11-18T01:33:06;9.10;92.30
22645;DHT22;11489;50.834;6.752;2022-11-18T01:35:40;9.10;92.30
22645;DHT22;11489;50.834;6.752;2022-11-18T01:38:07;9.10;92.30
22645;DHT22;11489;50.834;6.752;2022-11-18T01:40:34;9.10;92.30
22645;DHT22;11489;50.834;6.752;2022-11-18T01:43:00;9.10;92.30
22645;DHT22;11489;50.834;6.752;2022-11-18T01:45:30;9.10;92.30
22645;DHT22;11489;50.834;6.752;2022-11-18T01:51:00;9.10;92.10
22645;DHT22;11489;50.834;6.752;2022-11-18T01:53:32;9.10;92.20
22645;DHT22;11489;50.834;6.752;2022-11-18T01:56:03;9.10;92.20
22645;DHT22;11489;50.834;6.752;2022-11-18T01:58:37;9.10;92.20
22645;DHT22;11489;50.834;6.752;2022-11-18T02:01:04;9.10;92.20
22645;DHT22;11489;50.834;6.752;2022-11-18T02:03:32;9.10;92.30
22645;DHT22;11489;50.834;6.752;2022-11-18T02:05:59;9.10;92.20
22645;DHT22;11489;50.834;6.752;2022-11-18T02:08:25;9.10;92.20
22645;DHT22;11489;50.834;6.752;2022-11-18T02:10:51;9.10;92.00
22645;DHT22;11489;50.834;6.752;2022-11-18T02:13:17;9.00;91.90
22645;DHT22;11489;50.834;6.752;2022-11-18T02:16:05;9.00;91.80
22645;DHT22;11489;50.834;6.752;2022-11-18T02:18:53;9.00;91.60
22645;DHT22;11489;50.834;6.752;2022-11-18T02:21:27;8.90;91.60
22645;DHT22;11489;50.834;6.752;2022-11-18T02:24:27;8.80;91.70
22645;DHT22;11489;50.834;6.752;2022-11-18T02:29:44;8.80;91.90
22645;DHT22;11489;50.834;6.752;2022-11-18T02:32:17;8.70;92.00
22645;DHT22;11489;50.834;6.752;2022-11-18T02:37:50;8.70;92.20
22645;DHT22;11489;50.834;6.752;2022-11-18T02:40:32;8.70;92.20
22645;DHT22;11489;50.834;6.752;2022-11-18T02:43:05;8.70;92.20
22645;DHT22;11489;50.834;6.752;2022-11-18T02:45:32;8.60;92.30
22645;DHT22;11489;50.834;6.752;2022-11-18T02:48:03;8.60;92.30
22645;DHT22;11489;50.834;6.752;2022-11-18T02:50:32;8.60;92.30
22645;DHT22;11489;50.834;6.752;2022-11-18T02:53:01;8.60;92.40
22645;DHT22;11489;50.834;6.752;2022-11-18T02:55:31;8.60;92.70
22645;DHT22;11489;50.834;6.752;2022-11-18T02:57:58;8.70;92.50
22645;DHT22;11489;50.834;6.752;2022-11-18T03:00:24;8.70;92.50
22645;DHT22;11489;50.834;6.752;2022-11-18T03:02:50;8.70;92.50
22645;DHT22;11489;50.834;6.752;2022-11-18T03:07:55;8.70;92.50
22645;DHT22;11489;50.834;6.752;2022-11-18T03:10:22;8.70;92.50
22645;DHT22;11489;50.834;6.752;2022-11-18T03:16:01;8.70;92.40
22645;DHT22;11489;50.834;6.752;2022-11-18T03:18:47;8.80;92.40
22645;DHT22;11489;50.834;6.752;2022-11-18T03:21:19;8.80;92.40
22645;DHT22;11489;50.834;6.752;2022-11-18T03:23:58;8.80;92.50
22645;DHT22;11489;50.834;6.752;2022-11-18T03:26:33;8.70;92.50
22645;DHT22;11489;50.834;6.752;2022-11-18T03:29:04;8.70;92.50
22645;DHT22;11489;50.834;6.752;2022-11-18T03:31:41;8.80;92.60
22645;DHT22;11489;50.834;6.752;2022-11-18T03:34:11;8.80;92.50
22645;DHT22;11489;50.834;6.752;2022-11-18T03:36:40;8.80;92.50
22645;DHT22;11489;50.834;6.752;2022-11-18T03:39:09;8.80;92.50
22645;DHT22;11489;50.834;6.752;2022-11-18T03:41:39;8.80;92.50
22645;DHT22;11489;50.834;6.752;2022-11-18T03:44:12;8.80;92.50
22645;DHT22;11489;50.834;6.752;2022-11-18T03:46:39;8.80;92.50
22645;DHT22;11489;50.834;6.752;2022-11-18T03:49:09;8.80;92.50
22645;DHT22;11489;50.834;6.752;2022-11-18T03:51:41;8.80;92.40
22645;DHT22;11489;50.834;6.752;2022-11-18T03:54:13;8.80;92.50
22645;DHT22;11489;50.834;6.752;2022-11-18T03:56:43;8.80;92.40
22645;DHT22;11489;50.834;6.752;2022-11-18T03:59:22;8.80;92.40
22645;DHT22;11489;50.834;6.752;2022-11-18T04:01:55;8.80;92.40
22645;DHT22;11489;50.834;6.752;2022-11-18T04:04:24;8.80;92.40
22645;DHT22;11489;50.834;6.752;2022-11-18T04:07:05;8.80;92.40
22645;DHT22;11489;50.834;6.752;2022-11-18T04:10:10;8.80;92.40
22645;DHT22;11489;50.834;6.752;2022-11-18T04:12:43;8.80;92.20
22645;DHT22;11489;50.834;6.752;2022-11-18T04:15:10;8.80;92.40
22645;DHT22;11489;50.834;6.752;2022-11-18T04:17:35;8.80;92.40
22645;DHT22;11489;50.834;6.752;2022-11-18T04:20:01;8.80;92.40
22645;DHT22;11489;50.834;6.752;2022-11-18T04:22:27;8.70;92.70
22645;DHT22;11489;50.834;6.752;2022-11-18T04:24:53;8.70;92.40
22645;DHT22;11489;50.834;6.752;2022-11-18T04:27:18;8.70;92.40
22645;DHT22;11489;50.834;6.752;2022-11-18T04:29:44;8.70;92.40
22645;DHT22;11489;50.834;6.752;2022-11-18T04:32:10;8.70;92.50
22645;DHT22;11489;50.834;6.752;2022-11-18T04:34:35;8.70;92.50
22645;DHT22;11489;50.834;6.752;2022-11-18T04:37:01;8.70;92.50
22645;DHT22;11489;50.834;6.752;2022-11-18T04:39:27;8.80;92.50
22645;DHT22;11489;50.834;6.752;2022-11-18T04:41:52;8.80;92.50
22645;DHT22;11489;50.834;6.752;2022-11-18T04:44:39;8.70;92.50
22645;DHT22;11489;50.834;6.752;2022-11-18T04:47:06;8.80;92.40
22645;DHT22;11489;50.834;6.752;2022-11-18T04:49:33;8.70;92.50
22645;DHT22;11489;50.834;6.752;2022-11-18T04:51:59;8.80;92.50
22645;DHT22;11489;50.834;6.752;2022-11-18T04:54:26;8.70;92.50
22645;DHT22;11489;50.834;6.752;2022-11-18T04:56:52;8.70;92.40
22645;DHT22;11489;50.834;6.752;2022-11-18T04:59:24;8.70;92.40
22645;DHT22;11489;50.834;6.752;2022-11-18T05:01:51;8.80;92.50
22645;DHT22;11489;50.834;6.752;2022-11-18T05:04:19;8.70;92.40
22645;DHT22;11489;50.834;6.752;2022-11-18T05:06:48;8.70;92.40
22645;DHT22;11489;50.834;6.752;2022-11-18T05:09:14;8.70;92.40
22645;DHT22;11489;50.834;6.752;2022-11-18T05:11:40;8.70;92.40
22645;DHT22;11489;50.834;6.752;2022-11-18T05:14:26;8.70;92.50
22645;DHT22;11489;50.834;6.752;2022-11-18T05:16:52;8.70;92.50
22645;DHT22;11489;50.834;6.752;2022-11-18T05:19:18;8.60;92.50
22645;DHT22;11489;50.834;6.752;2022-11-18T05:21:44;8.60;92.50
22645;DHT22;11489;50.834;6.752;2022-11-18T05:24:09;8.70;92.60
22645;DHT22;11489;50.834;6.752;2022-11-18T05:26:35;8.70;92.50
22645;DHT22;11489;50.834;6.752;2022-11-18T05:29:01;8.60;92.50
22645;DHT22;11489;50.834;6.752;2022-11-18T05:31:26;8.60;92.50
22645;DHT22;11489;50.834;6.752;2022-11-18T05:33:52;8.60;92.50
22645;DHT22;11489;50.834;6.752;2022-11-18T05:36:19;8.60;92.50
22645;DHT22;11489;50.834;6.752;2022-11-18T05:38:45;8.60;92.50
22645;DHT22;11489;50.834;6.752;2022-11-18T05:41:11;8.60;92.40
22645;DHT22;11489;50.834;6.752;2022-11-18T05:44:01;8.50;92.40
22645;DHT22;11489;50.834;6.752;2022-11-18T05:46:27;8.50;92.40
22645;DHT22;11489;50.834;6.752;2022-11-18T05:48:53;8.50;92.40
22645;DHT22;11489;50.834;6.752;2022-11-18T05:51:19;8.50;92.50
22645;DHT22;11489;50.834;6.752;2022-11-18T05:53:46;8.40;92.40
22645;DHT22;11489;50.834;6.752;2022-11-18T05:56:57;8.40;92.40
22645;DHT22;11489;50.834;6.752;2022-11-18T05:59:04;8.40;92.40
22645;DHT22;11489;50.834;6.752;2022-11-18T06:01:35;8.40;92.30
22645;DHT22;11489;50.834;6.752;2022-11-18T06:04:03;8.30;92.30
22645;DHT22;11489;50.834;6.752;2022-11-18T06:06:31;8.30;92.30
22645;DHT22;11489;50.834;6.752;2022-11-18T06:09:01;8.20;92.30
22645;DHT22;11489;50.834;6.752;2022-11-18T06:11:30;8.20;92.30
22645;DHT22;11489;50.834;6.752;2022-11-18T06:14:04;8.20;92.30
22645;DHT22;11489;50.834;6.752;2022-11-18T06:16:33;8.20;92.30
22645;DHT22;11489;50.834;6.752;2022-11-18T06:19:01;8.10;92.40
22645;DHT22;11489;50.834;6.752;2022-11-18T06:21:27;8.10;92.50
22645;DHT22;11489;50.834;6.752;2022-11-18T06:23:53;8.10;92.50
22645;DHT22;11489;50.834;6.752;2022-11-18T06:26:19;8.10;92.70
22645;DHT22;11489;50.834;6.752;2022-11-18T06:28:45;8.10;92.80
22645;DHT22;11489;50.834;6.752;2022-11-18T06:31:12;8.10;92.80
22645;DHT22;11489;50.834;6.752;2022-11-18T06:33:37;8.10;92.90
22645;DHT22;11489;50.834;6.752;2022-11-18T06:36:03;8.10;92.90
22645;DHT22;11489;50.834;6.752;2022-11-18T06:38:29;8.10;92.90
22645;DHT22;11489;50.834;6.752;2022-11-18T06:40:59;8.10;93.00
22645;DHT22;11489;50.834;6.752;2022-11-18T06:43:25;8.10;93.00
22645;DHT22;11489;50.834;6.752;2022-11-18T06:46:04;8.20;93.40
22645;DHT22;11489;50.834;6.752;2022-11-18T06:48:49;8.20;93.00
22645;DHT22;11489;50.834;6.752;2022-11-18T06:51:16;8.20;93.00
22645;DHT22;11489;50.834;6.752;2022-11-18T06:53:41;8.20;93.00
22645;DHT22;11489;50.834;6.752;2022-11-18T06:56:09;8.20;93.00
22645;DHT22;11489;50.834;6.752;2022-11-18T06:58:36;8.20;93.00
22645;DHT22;11489;50.834;6.752;2022-11-18T07:01:29;8.20;93.00
22645;DHT22;11489;50.834;6.752;2022-11-18T07:03:58;8.30;93.00
22645;DHT22;11489;50.834;6.752;2022-11-18T07:06:26;8.30;93.00
22645;DHT22;11489;50.834;6.752;2022-11-18T07:08:52;8.30;93.00
22645;DHT22;11489;50.834;6.752;2022-11-18T07:11:20;8.30;93.00
22645;DHT22;11489;50.834;6.752;2022-11-18T07:13:46;8.30;93.00
22645;DHT22;11489;50.834;6.752;2022-11-18T07:16:23;8.30;93.00
22645;DHT22;11489;50.834;6.752;2022-11-18T07:18:50;8.30;93.00
22645;DHT22;11489;50.834;6.752;2022-11-18T07:21:18;8.30;93.00
22645;DHT22;11489;50.834;6.752;2022-11-18T07:23:45;8.30;93.00
22645;DHT22;11489;50.834;6.752;2022-11-18T07:26:11;8.30;92.90
22645;DHT22;11489;50.834;6.752;2022-11-18T07:28:37;8.30;92.90
22645;DHT22;11489;50.834;6.752;2022-11-18T07:31:17;8.30;92.80
22645;DHT22;11489;50.834;6.752;2022-11-18T07:33:43;8.30;92.80
22645;DHT22;11489;50.834;6.752;2022-11-18T07:36:11;8.30;92.90
22645;DHT22;11489;50.834;6.752;2022-11-18T07:38:38;8.30;93.00
22645;DHT22;11489;50.834;6.752;2022-11-18T07:41:05;8.30;93.10
22645;DHT22;11489;50.834;6.752;2022-11-18T07:43:32;8.30;93.20
22645;DHT22;11489;50.834;6.752;2022-11-18T07:45:58;8.40;93.30
22645;DHT22;11489;50.834;6.752;2022-11-18T07:48:23;8.40;93.40
22645;DHT22;11489;50.834;6.752;2022-11-18T07:50:49;8.40;93.40
22645;DHT22;11489;50.834;6.752;2022-11-18T07:53:16;8.40;93.40
22645;DHT22;11489;50.834;6.752;2022-11-18T07:55:42;8.50;93.50
22645;DHT22;11489;50.834;6.752;2022-11-18T07:58:07;8.60;93.60
22645;DHT22;11489;50.834;6.752;2022-11-18T08:00:33;8.60;93.60
22645;DHT22;11489;50.834;6.752;2022-11-18T08:02:59;8.70;93.60
22645;DHT22;11489;50.834;6.752;2022-11-18T08:05:24;8.70;93.60
22645;DHT22;11489;50.834;6.752;2022-11-18T08:07:50;8.70;93.60
22645;DHT22;11489;50.834;6.752;2022-11-18T08:10:15;8.80;93.60
22645;DHT22;11489;50.834;6.752;2022-11-18T08:12:41;8.80;93.60
22645;DHT22;11489;50.834;6.752;2022-11-18T08:15:07;8.90;93.60
22645;DHT22;11489;50.834;6.752;2022-11-18T08:17:33;9.00;93.60
22645;DHT22;11489;50.834;6.752;2022-11-18T08:19:58;9.00;93.60
22645;DHT22;11489;50.834;6.752;2022-11-18T08:22:24;9.00;93.50
22645;DHT22;11489;50.834;6.752;2022-11-18T08:24:50;9.00;93.50
22645;DHT22;11489;50.834;6.752;2022-11-18T08:27:15;9.10;93.50
22645;DHT22;11489;50.834;6.752;2022-11-18T08:29:41;9.10;93.50
22645;DHT22;11489;50.834;6.752;2022-11-18T08:32:07;9.10;93.40
22645;DHT22;11489;50.834;6.752;2022-11-18T08:34:32;9.20;93.40
22645;DHT22;11489;50.834;6.752;2022-11-18T08:36:58;9.20;93.30
22645;DHT22;11489;50.834;6.752;2022-11-18T08:39:24;9.20;93.40
22645;DHT22;11489;50.834;6.752;2022-11-18T08:41:49;9.30;93.40
22645;DHT22;11489;50.834;6.752;2022-11-18T08:44:15;9.30;93.50
22645;DHT22;11489;50.834;6.752;2022-11-18T08:46:45;9.30;93.50
22645;DHT22;11489;50.834;6.752;2022-11-18T08:49:11;9.40;93.50
22645;DHT22;11489;50.834;6.752;2022-11-18T08:51:36;9.40;93.50
22645;DHT22;11489;50.834;6.752;2022-11-18T08:54:02;9.50;93.40
22645;DHT22;11489;50.834;6.752;2022-11-18T08:56:28;9.50;93.40
22645;DHT22;11489;50.834;6.752;2022-11-18T08:58:54;9.50;93.40
22645;DHT22;11489;50.834;6.752;2022-11-18T09:01:20;9.50;93.30
22645;DHT22;11489;50.834;6.752;2022-11-18T09:03:46;9.60;93.30
22645;DHT22;11489;50.834;6.752;2022-11-18T09:06:20;9.60;93.30
22645;DHT22;11489;50.834;6.752;2022-11-18T09:08:46;9.70;93.30
22645;DHT22;11489;50.834;6.752;2022-11-18T09:11:14;9.80;93.40
22645;DHT22;11489;50.834;6.752;2022-11-18T09:13:40;9.80;93.50
22645;DHT22;11489;50.834;6.752;2022-11-18T09:16:06;9.90;93.50
22645;DHT22;11489;50.834;6.752;2022-11-18T09:18:33;10.00;93.50
22645;DHT22;11489;50.834;6.752;2022-11-18T09:21:07;10.00;93.50
22645;DHT22;11489;50.834;6.752;2022-11-18T09:23:35;10.20;93.50
22645;DHT22;11489;50.834;6.752;2022-11-18T09:26:13;10.20;93.70
22645;DHT22;11489;50.834;6.752;2022-11-18T09:28:39;10.40;93.90
22645;DHT22;11489;50.834;6.752;2022-11-18T09:31:10;10.50;94.10
22645;DHT22;11489;50.834;6.752;2022-11-18T09:33:36;10.70;94.30
22645;DHT22;11489;50.834;6.752;2022-11-18T09:36:22;10.80;94.50
22645;DHT22;11489;50.834;6.752;2022-11-18T09:38:48;11.10;94.80
22645;DHT22;11489;50.834;6.752;2022-11-18T09:41:42;11.40;94.80
22645;DHT22;11489;50.834;6.752;2022-11-18T09:49:54;12.30;94.10
22645;DHT22;11489;50.834;6.752;2022-11-18T09:52:32;12.70;94.60
22645;DHT22;11489;50.834;6.752;2022-11-18T09:55:03;13.00;94.40
22645;DHT22;11489;50.834;6.752;2022-11-18T09:57:36;13.30;94.30
22645;DHT22;11489;50.834;6.752;2022-11-18T10:00:12;13.70;93.80
22645;DHT22;11489;50.834;6.752;2022-11-18T10:05:21;14.20;92.70
22645;DHT22;11489;50.834;6.752;2022-11-18T10:19:05;15.20;90.20
22645;DHT22;11489;50.834;6.752;2022-11-18T10:22:04;15.30;89.90
22645;DHT22;11489;50.834;6.752;2022-11-18T10:24:58;15.40;88.30
22645;DHT22;11489;50.834;6.752;2022-11-18T10:27:37;15.50;89.10
22645;DHT22;11489;50.834;6.752;2022-11-18T10:30:18;15.60;89.00
22645;DHT22;11489;50.834;6.752;2022-11-18T10:32:55;15.60;88.10
22645;DHT22;11489;50.834;6.752;2022-11-18T10:35:31;15.70;88.00
22645;DHT22;11489;50.834;6.752;2022-11-18T10:46:29;15.80;84.80
22645;DHT22;11489;50.834;6.752;2022-11-18T10:49:14;15.80;84.70
22645;DHT22;11489;50.834;6.752;2022-11-18T10:54:16;15.90;88.10
22645;DHT22;11489;50.834;6.752;2022-11-18T10:56:45;16.00;85.90
22645;DHT22;11489;50.834;6.752;2022-11-18T10:59:35;16.10;87.30
22645;DHT22;11489;50.834;6.752;2022-11-18T11:02:31;16.20;86.80
22645;DHT22;11489;50.834;6.752;2022-11-18T11:05:15;16.40;85.80
22645;DHT22;11489;50.834;6.752;2022-11-18T11:07:41;16.50;86.60
22645;DHT22;11489;50.834;6.752;2022-11-18T11:12:35;16.50;84.70
22645;DHT22;11489;50.834;6.752;2022-11-18T11:15:09;16.40;85.30
22645;DHT22;11489;50.834;6.752;2022-11-18T11:17:50;16.40;85.60
22645;DHT22;11489;50.834;6.752;2022-11-18T11:20:36;16.30;86.00
22645;DHT22;11489;50.834;6.752;2022-11-18T11:23:11;16.30;89.30
22645;DHT22;11489;50.834;6.752;2022-11-18T11:25:54;16.40;88.10
22645;DHT22;11489;50.834;6.752;2022-11-18T11:28:29;16.40;86.60
22645;DHT22;11489;50.834;6.752;2022-11-18T11:33:30;16.30;86.50
22645;DHT22;11489;50.834;6.752;2022-11-18T11:36:19;16.10;85.60
22645;DHT22;11489;50.834;6.752;2022-11-18T11:41:28;15.80;86.40
22645;DHT22;11489;50.834;6.752;2022-11-18T11:47:08;15.60;84.30
22645;DHT22;11489;50.834;6.752;2022-11-18T11:50:16;15.50;84.70
22645;DHT22;11489;50.834;6.752;2022-11-18T11:52:54;15.40;84.90
22645;DHT22;11489;50.834;6.752;2022-11-18T12:03:55;15.20;83.30
22645;DHT22;11489;50.834;6.752;2022-11-18T12:06:25;15.10;86.40
22645;DHT22;11489;50.834;6.752;2022-11-18T12:09:04;15.00;87.20
22645;DHT22;11489;50.834;6.752;2022-11-18T12:14:38;14.60;82.20
22645;DHT22;11489;50.834;6.752;2022-11-18T12:17:17;14.50;85.30
22645;DHT22;11489;50.834;6.752;2022-11-18T12:19:46;14.40;84.90
22645;DHT22;11489;50.834;6.752;2022-11-18T12:22:12;14.30;86.40
22645;DHT22;11489;50.834;6.752;2022-11-18T12:24:40;14.20;86.90
22645;DHT22;11489;50.834;6.752;2022-11-18T12:30:01;14.10;84.80
22645;DHT22;11489;50.834;6.752;2022-11-18T12:32:30;14.10;87.40
22645;DHT22;11489;50.834;6.752;2022-11-18T12:35:18;14.10;87.10
22645;DHT22;11489;50.834;6.752;2022-11-18T12:40:44;14.10;87.00
22645;DHT22;11489;50.834;6.752;2022-11-18T12:54:24;14.70;90.50
22645;DHT22;11489;50.834;6.752;2022-11-18T12:56:50;14.90;88.60
22645;DHT22;11489;50.834;6.752;2022-11-18T12:59:29;15.10;89.10
22645;DHT22;11489;50.834;6.752;2022-11-18T13:02:03;15.30;86.80
22645;DHT22;11489;50.834;6.752;2022-11-18T13:04:29;15.40;86.30
22645;DHT22;11489;50.834;6.752;2022-11-18T13:06:55;15.50;87.30
22645;DHT22;11489;50.834;6.752;2022-11-18T13:09:26;15.50;86.20
22645;DHT22;11489;50.834;6.752;2022-11-18T13:11:58;15.50;85.10
22645;DHT22;11489;50.834;6.752;2022-11-18T13:17:34;15.40;83.80
22645;DHT22;11489;50.834;6.752;2022-11-18T13:20:31;15.30;82.00
22645;DHT22;11489;50.834;6.752;2022-11-18T13:22:58;15.20;83.60
22645;DHT22;11489;50.834;6.752;2022-11-18T13:25:44;15.10;84.80
22645;DHT22;11489;50.834;6.752;2022-11-18T13:28:31;15.00;84.60
22645;DHT22;11489;50.834;6.752;2022-11-18T13:31:14;15.00;81.50
22645;DHT22;11489;50.834;6.752;2022-11-18T13:33:41;14.90;83.10
22645;DHT22;11489;50.834;6.752;2022-11-18T13:36:18;14.70;83.60
22645;DHT22;11489;50.834;6.752;2022-11-18T13:38:55;14.70;82.20
22645;DHT22;11489;50.834;6.752;2022-11-18T13:41:21;14.60;82.20
22645;DHT22;11489;50.834;6.752;2022-11-18T13:43:49;14.40;83.30
22645;DHT22;11489;50.834;6.752;2022-11-18T13:46:18;14.30;83.50
22645;DHT22;11489;50.834;6.752;2022-11-18T13:48:52;14.20;82.90
22645;DHT22;11489;50.834;6.752;2022-11-18T13:51:20;14.00;83.10
22645;DHT22;11489;50.834;6.752;2022-11-18T13:53:47;13.80;83.50
22645;DHT22;11489;50.834;6.752;2022-11-18T13:56:25;13.70;84.20
22645;DHT22;11489;50.834;6.752;2022-11-18T13:58:58;13.60;83.10
22645;DHT22;11489;50.834;6.752;2022-11-18T14:01:32;13.40;84.10
22645;DHT22;11489;50.834;6.752;2022-11-18T14:04:01;13.30;84.00
22645;DHT22;11489;50.834;6.752;2022-11-18T14:06:30;13.20;84.70
22645;DHT22;11489;50.834;6.752;2022-11-18T14:14:34;13.00;84.60
22645;DHT22;11489;50.834;6.752;2022-11-18T14:17:04;12.90;84.80
22645;DHT22;11489;50.834;6.752;2022-11-18T14:19:39;12.90;85.50
22645;DHT22;11489;50.834;6.752;2022-11-18T14:22:09;12.80;85.80
22645;DHT22;11489;50.834;6.752;2022-11-18T14:24:36;12.80;85.80
22645;DHT22;11489;50.834;6.752;2022-11-18T14:29:53;12.70;84.80
22645;DHT22;11489;50.834;6.752;2022-11-18T14:32:18;12.60;85.60
22645;DHT22;11489;50.834;6.752;2022-11-18T14:34:58;12.60;85.80
22645;DHT22;11489;50.834;6.752;2022-11-18T14:37:25;12.60;85.00
22645;DHT22;11489;50.834;6.752;2022-11-18T14:39:55;12.40;85.60
22645;DHT22;11489;50.834;6.752;2022-11-18T14:42:22;12.40;85.40
22645;DHT22;11489;50.834;6.752;2022-11-18T14:44:48;12.30;85.70
22645;DHT22;11489;50.834;6.752;2022-11-18T14:47:25;12.30;85.80
22645;DHT22;11489;50.834;6.752;2022-11-18T14:49:51;12.30;85.70
22645;DHT22;11489;50.834;6.752;2022-11-18T14:52:17;12.20;86.10
22645;DHT22;11489;50.834;6.752;2022-11-18T14:54:43;12.10;86.10
22645;DHT22;11489;50.834;6.752;2022-11-18T14:57:14;12.10;86.20
22645;DHT22;11489;50.834;6.752;2022-11-18T14:59:40;12.10;86.20
22645;DHT22;11489;50.834;6.752;2022-11-18T15:02:16;12.00;86.60
22645;DHT22;11489;50.834;6.752;2022-11-18T15:04:42;12.00;85.90
22645;DHT22;11489;50.834;6.752;2022-11-18T15:07:12;12.00;86.70
22645;DHT22;11489;50.834;6.752;2022-11-18T15:09:41;12.00;86.50
22645;DHT22;11489;50.834;6.752;2022-11-18T15:12:07;11.90;86.80
22645;DHT22;11489;50.834;6.752;2022-11-18T15:14:33;11.90;86.90
22645;DHT22;11489;50.834;6.752;2022-11-18T15:17:00;11.90;87.00
22645;DHT22;11489;50.834;6.752;2022-11-18T15:19:26;11.90;87.10
22645;DHT22;11489;50.834;6.752;2022-11-18T15:21:52;11.80;87.20
22645;DHT22;11489;50.834;6.752;2022-11-18T15:24:18;11.80;87.30
22645;DHT22;11489;50.834;6.752;2022-11-18T15:26:45;11.80;87.30
22645;DHT22;11489;50.834;6.752;2022-11-18T15:29:16;11.80;87.20
22645;DHT22;11489;50.834;6.752;2022-11-18T15:31:42;11.80;87.00
22645;DHT22;11489;50.834;6.752;2022-11-18T15:34:08;11.70;87.10
22645;DHT22;11489;50.834;6.752;2022-11-18T15:36:34;11.70;87.00
22645;DHT22;11489;50.834;6.752;2022-11-18T15:38:59;11.60;87.00
22645;DHT22;11489;50.834;6.752;2022-11-18T15:41:28;11.60;86.90
22645;DHT22;11489;50.834;6.752;2022-11-18T15:43:55;11.50;86.90
22645;DHT22;11489;50.834;6.752;2022-11-18T15:46:23;11.40;86.90
22645;DHT22;11489;50.834;6.752;2022-11-18T15:48:53;11.30;86.90
22645;DHT22;11489;50.834;6.752;2022-11-18T15:51:19;11.30;87.00
22645;DHT22;11489;50.834;6.752;2022-11-18T15:53:45;11.20;87.20
22645;DHT22;11489;50.834;6.752;2022-11-18T16:01:25;11.10;87.50
22645;DHT22;11489;50.834;6.752;2022-11-18T16:03:51;11.00;88.00
22645;DHT22;11489;50.834;6.752;2022-11-18T16:06:16;10.90;88.20
22645;DHT22;11489;50.834;6.752;2022-11-18T16:08:42;10.90;88.40
22645;DHT22;11489;50.834;6.752;2022-11-18T16:11:11;10.90;88.70
22645;DHT22;11489;50.834;6.752;2022-11-18T16:14:14;10.90;88.80
22645;DHT22;11489;50.834;6.752;2022-11-18T16:16:41;10.80;88.90
22645;DHT22;11489;50.834;6.752;2022-11-18T16:19:13;10.80;89.20
22645;DHT22;11489;50.834;6.752;2022-11-18T16:21:43;10.80;89.30
22645;DHT22;11489;50.834;6.752;2022-11-18T16:24:12;10.80;89.50
22645;DHT22;11489;50.834;6.752;2022-11-18T16:26:38;10.80;89.50
22645;DHT22;11489;50.834;6.752;2022-11-18T16:29:05;10.80;89.60
22645;DHT22;11489;50.834;6.752;2022-11-18T16:31:31;10.80;89.50
22645;DHT22;11489;50.834;6.752;2022-11-18T16:34:13;10.80;89.60
22645;DHT22;11489;50.834;6.752;2022-11-18T16:36:41;10.80;89.50
22645;DHT22;11489;50.834;6.752;2022-11-18T16:39:11;10.70;89.60
22645;DHT22;11489;50.834;6.752;2022-11-18T16:41:37;10.70;89.50
22645;DHT22;11489;50.834;6.752;2022-11-18T16:44:06;10.70;89.60
22645;DHT22;11489;50.834;6.752;2022-11-18T16:46:33;10.70;89.60
22645;DHT22;11489;50.834;6.752;2022-11-18T16:49:00;10.60;89.60
22645;DHT22;11489;50.834;6.752;2022-11-18T16:51:28;10.60;89.60
22645;DHT22;11489;50.834;6.752;2022-11-18T16:53:59;10.60;89.60
22645;DHT22;11489;50.834;6.752;2022-11-18T16:56:26;10.60;89.60
22645;DHT22;11489;50.834;6.752;2022-11-18T16:58:57;10.60;89.70
22645;DHT22;11489;50.834;6.752;2022-11-18T17:01:23;10.50;89.70
22645;DHT22;11489;50.834;6.752;2022-11-18T17:03:50;10.50;89.90
22645;DHT22;11489;50.834;6.752;2022-11-18T17:06:16;10.50;89.80
22645;DHT22;11489;50.834;6.752;2022-11-18T17:08:43;10.40;89.60
22645;DHT22;11489;50.834;6.752;2022-11-18T17:11:09;10.40;89.50
22645;DHT22;11489;50.834;6.752;2022-11-18T17:13:39;10.30;89.40
22645;DHT22;11489;50.834;6.752;2022-11-18T17:16:08;10.30;89.20
22645;DHT22;11489;50.834;6.752;2022-11-18T17:18:34;10.20;89.20
22645;DHT22;11489;50.834;6.752;2022-11-18T17:21:04;10.20;90.00
22645;DHT22;11489;50.834;6.752;2022-11-18T17:23:30;10.10;89.20
22645;DHT22;11489;50.834;6.752;2022-11-18T17:25:56;10.10;89.30
22645;DHT22;11489;50.834;6.752;2022-11-18T17:28:21;10.00;89.40
22645;DHT22;11489;50.834;6.752;2022-11-18T17:30:47;9.90;89.50
22645;DHT22;11489;50.834;6.752;2022-11-18T17:33:13;9.90;89.60
22645;DHT22;11489;50.834;6.752;2022-11-18T17:35:38;9.90;89.80
22645;DHT22;11489;50.834;6.752;2022-11-18T17:38:04;9.90;89.90
22645;DHT22;11489;50.834;6.752;2022-11-18T17:40:30;9.80;90.00